sensor_id;sensor_type;location;lat;lon;timestamp;P1;durP1;ratioP1;P2;durP2;ratioP2
23242;SDS011;11790;49.578;11.214;2022-09-16T00:04:57;11.52;;;6.70;;
23242;SDS011;11790;49.578;11.214;2022-09-16T00:09:57;10.70;;;7.05;;
23242;SDS011;11790;49.578;11.214;2022-09-16T00:14:57;10.60;;;7.03;;
23242;SDS011;11790;49.578;11.214;2022-09-16T00:19:57;10.02;;;7.13;;
23242;SDS011;11790;49.578;11.214;2022-09-16T00:24:58;11.97;;;6.97;;
23242;SDS011;11790;49.578;11.214;2022-09-16T00:29:58;10.02;;;6.88;;
23242;SDS011;11790;49.578;11.214;2022-09-16T00:34:58;12.48;;;6.28;;
23242;SDS011;11790;49.578;11.214;2022-09-16T00:39:58;9.93;;;6.60;;
23242;SDS011;11790;49.578;11.214;2022-09-16T00:45:00;9.05;;;6.70;;
23242;SDS011;11790;49.578;11.214;2022-09-16T00:50:10;10.00;;;6.97;;
23242;SDS011;11790;49.578;11.214;2022-09-16T00:55:13;9.73;;;6.80;;
23242;SDS011;11790;49.578;11.214;2022-09-16T01:00:14;8.25;;;6.07;;
23242;SDS011;11790;49.578;11.214;2022-09-16T01:05:16;12.25;;;6.55;;
23242;SDS011;11790;49.578;11.214;2022-09-16T01:10:19;9.88;;;6.85;;
23242;SDS011;11790;49.578;11.214;2022-09-16T01:46:47;10.27;;;6.82;;
23242;SDS011;11790;49.578;11.214;2022-09-16T01:52:10;10.15;;;6.65;;
23242;SDS011;11790;49.578;11.214;2022-09-16T01:57:16;12.32;;;7.38;;
23242;SDS011;11790;49.578;11.214;2022-09-16T02:02:18;8.10;;;6.28;;
23242;SDS011;11790;49.578;11.214;2022-09-16T02:07:21;10.50;;;6.50;;
23242;SDS011;11790;49.578;11.214;2022-09-16T02:12:24;11.15;;;6.65;;
23242;SDS011;11790;49.578;11.214;2022-09-16T02:17:25;8.95;;;6.65;;
23242;SDS011;11790;49.578;11.214;2022-09-16T02:22:28;8.63;;;6.25;;
23242;SDS011;11790;49.578;11.214;2022-09-16T02:27:30;9.95;;;6.75;;
23242;SDS011;11790;49.578;11.214;2022-09-16T02:32:31;10.70;;;6.68;;
23242;SDS011;11790;49.578;11.214;2022-09-16T02:37:33;9.98;;;5.93;;
23242;SDS011;11790;49.578;11.214;2022-09-16T02:42:35;13.20;;;6.93;;
23242;SDS011;11790;49.578;11.214;2022-09-16T02:47:40;10.30;;;6.38;;
23242;SDS011;11790;49.578;11.214;2022-09-16T02:53:30;8.85;;;6.57;;
23242;SDS011;11790;49.578;11.214;2022-09-16T02:58:04;10.68;;;6.20;;
23242;SDS011;11790;49.578;11.214;2022-09-16T03:03:05;10.13;;;5.80;;
23242;SDS011;11790;49.578;11.214;2022-09-16T03:08:05;6.50;;;5.43;;
23242;SDS011;11790;49.578;11.214;2022-09-16T03:13:11;12.80;;;5.43;;
23242;SDS011;11790;49.578;11.214;2022-09-16T03:28:15;8.98;;;5.13;;
23242;SDS011;11790;49.578;11.214;2022-09-16T03:33:24;7.45;;;5.15;;
23242;SDS011;11790;49.578;11.214;2022-09-16T03:38:26;8.50;;;5.72;;
23242;SDS011;11790;49.578;11.214;2022-09-16T03:43:26;10.20;;;5.50;;
23242;SDS011;11790;49.578;11.214;2022-09-16T03:48:27;10.35;;;5.70;;
23242;SDS011;11790;49.578;11.214;2022-09-16T03:53:27;8.77;;;5.45;;
23242;SDS011;11790;49.578;11.214;2022-09-16T03:58:27;9.88;;;5.88;;
23242;SDS011;11790;49.578;11.214;2022-09-16T04:03:28;8.15;;;5.40;;
23242;SDS011;11790;49.578;11.214;2022-09-16T04:08:28;14.40;;;5.03;;
23242;SDS011;11790;49.578;11.214;2022-09-16T04:13:28;7.55;;;5.45;;
23242;SDS011;11790;49.578;11.214;2022-09-16T04:18:29;7.70;;;5.03;;
23242;SDS011;11790;49.578;11.214;2022-09-16T04:23:29;9.98;;;5.50;;
23242;SDS011;11790;49.578;11.214;2022-09-16T04:28:33;7.60;;;5.30;;
23242;SDS011;11790;49.578;11.214;2022-09-16T04:33:34;8.27;;;6.23;;
23242;SDS011;11790;49.578;11.214;2022-09-16T04:38:35;10.63;;;6.50;;
23242;SDS011;11790;49.578;11.214;2022-09-16T04:43:35;9.43;;;6.38;;
23242;SDS011;11790;49.578;11.214;2022-09-16T04:48:36;8.57;;;6.32;;
23242;SDS011;11790;49.578;11.214;2022-09-16T04:53:37;9.73;;;5.88;;
23242;SDS011;11790;49.578;11.214;2022-09-16T04:58:38;11.65;;;6.18;;
23242;SDS011;11790;49.578;11.214;2022-09-16T05:03:42;11.07;;;5.60;;
23242;SDS011;11790;49.578;11.214;2022-09-16T05:08:43;9.77;;;6.05;;
23242;SDS011;11790;49.578;11.214;2022-09-16T05:13:43;8.90;;;5.40;;
23242;SDS011;11790;49.578;11.214;2022-09-16T05:18:44;8.35;;;5.50;;
23242;SDS011;11790;49.578;11.214;2022-09-16T05:23:45;9.77;;;5.20;;
23242;SDS011;11790;49.578;11.214;2022-09-16T05:28:46;8.95;;;5.45;;
23242;SDS011;11790;49.578;11.214;2022-09-16T05:33:51;7.97;;;5.43;;
23242;SDS011;11790;49.578;11.214;2022-09-16T05:38:52;8.67;;;4.90;;
23242;SDS011;11790;49.578;11.214;2022-09-16T05:43:52;12.73;;;5.67;;
23242;SDS011;11790;49.578;11.214;2022-09-16T05:48:53;10.68;;;6.15;;
23242;SDS011;11790;49.578;11.214;2022-09-16T05:53:54;10.10;;;6.03;;
23242;SDS011;11790;49.578;11.214;2022-09-16T05:58:56;11.82;;;6.82;;
23242;SDS011;11790;49.578;11.214;2022-09-16T06:03:56;12.07;;;6.03;;
23242;SDS011;11790;49.578;11.214;2022-09-16T06:08:57;11.70;;;5.25;;
23242;SDS011;11790;49.578;11.214;2022-09-16T06:13:59;7.40;;;4.88;;
23242;SDS011;11790;49.578;11.214;2022-09-16T06:19:01;10.57;;;4.45;;
23242;SDS011;11790;49.578;11.214;2022-09-16T06:24:01;11.80;;;4.65;;
23242;SDS011;11790;49.578;11.214;2022-09-16T06:29:02;6.72;;;4.30;;
23242;SDS011;11790;49.578;11.214;2022-09-16T06:34:03;7.30;;;3.47;;
23242;SDS011;11790;49.578;11.214;2022-09-16T06:39:04;6.50;;;4.18;;
23242;SDS011;11790;49.578;11.214;2022-09-16T06:44:05;8.45;;;3.75;;
23242;SDS011;11790;49.578;11.214;2022-09-16T06:49:05;5.53;;;3.30;;
23242;SDS011;11790;49.578;11.214;2022-09-16T06:54:06;6.20;;;3.33;;
23242;SDS011;11790;49.578;11.214;2022-09-16T06:59:08;13.57;;;3.85;;
23242;SDS011;11790;49.578;11.214;2022-09-16T07:04:09;5.75;;;3.00;;
23242;SDS011;11790;49.578;11.214;2022-09-16T07:09:10;4.90;;;2.70;;
23242;SDS011;11790;49.578;11.214;2022-09-16T07:14:10;4.03;;;2.70;;
23242;SDS011;11790;49.578;11.214;2022-09-16T07:19:10;5.63;;;2.88;;
23242;SDS011;11790;49.578;11.214;2022-09-16T07:24:11;5.18;;;2.50;;
23242;SDS011;11790;49.578;11.214;2022-09-16T07:29:13;8.93;;;2.45;;
23242;SDS011;11790;49.578;11.214;2022-09-16T07:34:13;7.97;;;2.42;;
23242;SDS011;11790;49.578;11.214;2022-09-16T07:39:14;6.73;;;2.30;;
23242;SDS011;11790;49.578;11.214;2022-09-16T07:44:16;3.03;;;1.83;;
23242;SDS011;11790;49.578;11.214;2022-09-16T07:49:16;6.72;;;1.80;;
23242;SDS011;11790;49.578;11.214;2022-09-16T07:54:17;4.90;;;1.83;;
23242;SDS011;11790;49.578;11.214;2022-09-16T07:59:17;4.18;;;1.55;;
23242;SDS011;11790;49.578;11.214;2022-09-16T08:04:18;5.88;;;1.65;;
23242;SDS011;11790;49.578;11.214;2022-09-16T08:09:18;3.95;;;1.67;;
23242;SDS011;11790;49.578;11.214;2022-09-16T08:14:19;3.15;;;1.45;;
23242;SDS011;11790;49.578;11.214;2022-09-16T08:19:19;8.38;;;1.67;;
23242;SDS011;11790;49.578;11.214;2022-09-16T08:24:21;3.70;;;1.40;;
23242;SDS011;11790;49.578;11.214;2022-09-16T08:29:21;2.58;;;1.10;;
23242;SDS011;11790;49.578;11.214;2022-09-16T08:34:24;2.53;;;1.10;;
23242;SDS011;11790;49.578;11.214;2022-09-16T08:39:24;4.80;;;1.40;;
23242;SDS011;11790;49.578;11.214;2022-09-16T08:44:43;3.47;;;1.38;;
23242;SDS011;11790;49.578;11.214;2022-09-16T08:49:49;2.72;;;1.35;;
23242;SDS011;11790;49.578;11.214;2022-09-16T08:54:52;5.18;;;1.70;;
23242;SDS011;11790;49.578;11.214;2022-09-16T08:59:57;5.10;;;1.60;;
23242;SDS011;11790;49.578;11.214;2022-09-16T09:04:58;6.22;;;2.33;;
23242;SDS011;11790;49.578;11.214;2022-09-16T09:25:30;4.60;;;1.50;;
23242;SDS011;11790;49.578;11.214;2022-09-16T09:30:31;8.32;;;2.20;;
23242;SDS011;11790;49.578;11.214;2022-09-16T09:40:50;2.83;;;1.25;;
23242;SDS011;11790;49.578;11.214;2022-09-16T09:50:52;4.15;;;1.20;;
23242;SDS011;11790;49.578;11.214;2022-09-16T10:01:20;1.88;;;1.15;;
23242;SDS011;11790;49.578;11.214;2022-09-16T10:06:22;2.53;;;1.40;;
23242;SDS011;11790;49.578;11.214;2022-09-16T10:11:29;3.95;;;1.30;;
23242;SDS011;11790;49.578;11.214;2022-09-16T10:16:35;1.70;;;1.10;;
23242;SDS011;11790;49.578;11.214;2022-09-16T10:21:38;3.75;;;1.27;;
23242;SDS011;11790;49.578;11.214;2022-09-16T10:26:39;3.55;;;1.20;;
23242;SDS011;11790;49.578;11.214;2022-09-16T10:31:40;5.30;;;1.48;;
23242;SDS011;11790;49.578;11.214;2022-09-16T10:36:41;3.63;;;1.48;;
23242;SDS011;11790;49.578;11.214;2022-09-16T10:41:42;4.40;;;1.15;;
23242;SDS011;11790;49.578;11.214;2022-09-16T10:47:03;3.67;;;1.05;;
23242;SDS011;11790;49.578;11.214;2022-09-16T10:57:28;3.58;;;1.38;;
23242;SDS011;11790;49.578;11.214;2022-09-16T11:33:22;4.55;;;1.98;;
23242;SDS011;11790;49.578;11.214;2022-09-16T11:38:28;6.80;;;2.00;;
23242;SDS011;11790;49.578;11.214;2022-09-16T11:54:02;4.72;;;1.88;;
23242;SDS011;11790;49.578;11.214;2022-09-16T11:59:09;5.32;;;1.92;;
23242;SDS011;11790;49.578;11.214;2022-09-16T12:09:13;6.38;;;3.15;;
23242;SDS011;11790;49.578;11.214;2022-09-16T12:14:22;5.43;;;2.55;;
23242;SDS011;11790;49.578;11.214;2022-09-16T12:19:26;6.97;;;2.10;;
23242;SDS011;11790;49.578;11.214;2022-09-16T12:29:57;4.32;;;1.90;;
23242;SDS011;11790;49.578;11.214;2022-09-16T12:35:00;8.90;;;1.98;;
23242;SDS011;11790;49.578;11.214;2022-09-16T12:40:01;5.60;;;1.90;;
23242;SDS011;11790;49.578;11.214;2022-09-16T12:50:11;5.05;;;2.10;;
23242;SDS011;11790;49.578;11.214;2022-09-16T13:00:22;3.97;;;1.80;;
23242;SDS011;11790;49.578;11.214;2022-09-16T13:05:32;3.15;;;1.52;;
23242;SDS011;11790;49.578;11.214;2022-09-16T13:10:34;5.30;;;1.80;;
23242;SDS011;11790;49.578;11.214;2022-09-16T13:15:36;8.02;;;2.42;;
23242;SDS011;11790;49.578;11.214;2022-09-16T13:20:40;4.28;;;2.10;;
23242;SDS011;11790;49.578;11.214;2022-09-16T13:25:44;6.00;;;2.22;;
23242;SDS011;11790;49.578;11.214;2022-09-16T13:30:45;8.57;;;2.45;;
23242;SDS011;11790;49.578;11.214;2022-09-16T13:35:46;5.38;;;2.08;;
23242;SDS011;11790;49.578;11.214;2022-09-16T13:40:55;3.28;;;2.10;;
23242;SDS011;11790;49.578;11.214;2022-09-16T13:46:01;5.88;;;1.85;;
23242;SDS011;11790;49.578;11.214;2022-09-16T13:51:05;3.27;;;1.50;;
23242;SDS011;11790;49.578;11.214;2022-09-16T14:06:13;5.35;;;2.08;;
23242;SDS011;11790;49.578;11.214;2022-09-16T14:11:32;4.07;;;1.90;;
23242;SDS011;11790;49.578;11.214;2022-09-16T14:16:37;5.93;;;1.70;;
23242;SDS011;11790;49.578;11.214;2022-09-16T14:21:39;3.65;;;1.30;;
23242;SDS011;11790;49.578;11.214;2022-09-16T14:26:48;3.70;;;1.45;;
23242;SDS011;11790;49.578;11.214;2022-09-16T14:31:48;4.05;;;1.33;;
23242;SDS011;11790;49.578;11.214;2022-09-16T14:36:50;3.47;;;1.20;;
23242;SDS011;11790;49.578;11.214;2022-09-16T14:41:57;6.17;;;1.80;;
23242;SDS011;11790;49.578;11.214;2022-09-16T14:46:58;2.33;;;1.17;;
23242;SDS011;11790;49.578;11.214;2022-09-16T14:52:00;4.15;;;1.40;;
23242;SDS011;11790;49.578;11.214;2022-09-16T14:57:06;5.18;;;1.83;;
23242;SDS011;11790;49.578;11.214;2022-09-16T15:02:18;3.83;;;1.48;;
23242;SDS011;11790;49.578;11.214;2022-09-16T15:07:22;2.90;;;1.35;;
23242;SDS011;11790;49.578;11.214;2022-09-16T15:12:24;3.22;;;1.30;;
23242;SDS011;11790;49.578;11.214;2022-09-16T15:17:26;2.25;;;1.10;;
23242;SDS011;11790;49.578;11.214;2022-09-16T15:22:27;2.25;;;1.05;;
23242;SDS011;11790;49.578;11.214;2022-09-16T15:27:28;2.50;;;1.00;;
23242;SDS011;11790;49.578;11.214;2022-09-16T15:32:29;2.13;;;0.90;;
23242;SDS011;11790;49.578;11.214;2022-09-16T15:37:31;1.17;;;0.80;;
23242;SDS011;11790;49.578;11.214;2022-09-16T15:42:32;2.55;;;0.80;;
23242;SDS011;11790;49.578;11.214;2022-09-16T15:47:33;2.13;;;0.87;;
23242;SDS011;11790;49.578;11.214;2022-09-16T15:52:47;2.22;;;0.82;;
23242;SDS011;11790;49.578;11.214;2022-09-16T15:57:48;2.55;;;0.98;;
23242;SDS011;11790;49.578;11.214;2022-09-16T16:02:56;4.95;;;0.93;;
23242;SDS011;11790;49.578;11.214;2022-09-16T16:07:58;1.40;;;0.70;;
23242;SDS011;11790;49.578;11.214;2022-09-16T16:13:00;1.95;;;0.70;;
23242;SDS011;11790;49.578;11.214;2022-09-16T16:18:06;2.95;;;1.10;;
23242;SDS011;11790;49.578;11.214;2022-09-16T16:23:06;4.38;;;1.27;;
23242;SDS011;11790;49.578;11.214;2022-09-16T16:28:07;1.48;;;0.68;;
23242;SDS011;11790;49.578;11.214;2022-09-16T16:33:07;3.42;;;0.80;;
23242;SDS011;11790;49.578;11.214;2022-09-16T16:38:07;1.88;;;0.70;;
23242;SDS011;11790;49.578;11.214;2022-09-16T16:43:08;3.10;;;0.80;;
23242;SDS011;11790;49.578;11.214;2022-09-16T16:48:08;1.97;;;0.97;;
23242;SDS011;11790;49.578;11.214;2022-09-16T16:53:10;2.00;;;1.10;;
23242;SDS011;11790;49.578;11.214;2022-09-16T16:58:10;2.78;;;0.95;;
23242;SDS011;11790;49.578;11.214;2022-09-16T17:03:11;5.85;;;1.70;;
23242;SDS011;11790;49.578;11.214;2022-09-16T17:08:11;3.42;;;1.27;;
23242;SDS011;11790;49.578;11.214;2022-09-16T17:13:11;2.47;;;1.15;;
23242;SDS011;11790;49.578;11.214;2022-09-16T17:18:12;2.88;;;1.27;;
23242;SDS011;11790;49.578;11.214;2022-09-16T17:23:12;6.10;;;1.45;;
23242;SDS011;11790;49.578;11.214;2022-09-16T17:28:12;3.05;;;1.50;;
23242;SDS011;11790;49.578;11.214;2022-09-16T17:33:12;3.92;;;1.70;;
23242;SDS011;11790;49.578;11.214;2022-09-16T17:38:12;4.25;;;1.40;;
23242;SDS011;11790;49.578;11.214;2022-09-16T17:43:13;9.30;;;2.75;;
23242;SDS011;11790;49.578;11.214;2022-09-16T17:48:13;10.90;;;4.60;;
23242;SDS011;11790;49.578;11.214;2022-09-16T17:53:13;7.40;;;6.20;;
23242;SDS011;11790;49.578;11.214;2022-09-16T17:58:14;3.58;;;2.30;;
23242;SDS011;11790;49.578;11.214;2022-09-16T18:03:14;3.35;;;2.45;;
23242;SDS011;11790;49.578;11.214;2022-09-16T18:08:15;2.97;;;2.00;;
23242;SDS011;11790;49.578;11.214;2022-09-16T18:13:15;4.68;;;1.77;;
23242;SDS011;11790;49.578;11.214;2022-09-16T18:18:15;3.80;;;2.10;;
23242;SDS011;11790;49.578;11.214;2022-09-16T18:23:17;4.65;;;1.90;;
23242;SDS011;11790;49.578;11.214;2022-09-16T18:28:17;3.55;;;1.75;;
23242;SDS011;11790;49.578;11.214;2022-09-16T18:33:18;2.08;;;1.70;;
23242;SDS011;11790;49.578;11.214;2022-09-16T18:38:18;3.58;;;1.90;;
23242;SDS011;11790;49.578;11.214;2022-09-16T18:43:18;3.95;;;2.20;;
23242;SDS011;11790;49.578;11.214;2022-09-16T18:48:18;5.53;;;2.15;;
23242;SDS011;11790;49.578;11.214;2022-09-16T18:53:19;4.55;;;2.10;;
23242;SDS011;11790;49.578;11.214;2022-09-16T18:58:19;3.55;;;2.28;;
23242;SDS011;11790;49.578;11.214;2022-09-16T19:03:19;2.72;;;2.15;;
23242;SDS011;11790;49.578;11.214;2022-09-16T19:08:23;5.05;;;4.22;;
23242;SDS011;11790;49.578;11.214;2022-09-16T19:13:23;4.90;;;3.38;;
23242;SDS011;11790;49.578;11.214;2022-09-16T19:18:24;6.43;;;3.15;;
23242;SDS011;11790;49.578;11.214;2022-09-16T19:23:24;5.65;;;2.80;;
23242;SDS011;11790;49.578;11.214;2022-09-16T19:28:24;7.00;;;2.97;;
23242;SDS011;11790;49.578;11.214;2022-09-16T19:33:25;5.88;;;2.90;;
23242;SDS011;11790;49.578;11.214;2022-09-16T19:38:25;4.88;;;3.03;;
23242;SDS011;11790;49.578;11.214;2022-09-16T19:43:28;9.93;;;4.40;;
23242;SDS011;11790;49.578;11.214;2022-09-16T19:48:29;8.18;;;4.05;;
23242;SDS011;11790;49.578;11.214;2022-09-16T19:53:30;7.93;;;4.15;;
23242;SDS011;11790;49.578;11.214;2022-09-16T19:58:31;9.20;;;5.38;;
23242;SDS011;11790;49.578;11.214;2022-09-16T20:03:32;7.03;;;4.85;;
23242;SDS011;11790;49.578;11.214;2022-09-16T20:08:33;8.57;;;4.68;;
23242;SDS011;11790;49.578;11.214;2022-09-16T20:13:34;7.55;;;5.03;;
23242;SDS011;11790;49.578;11.214;2022-09-16T20:18:35;7.57;;;4.78;;
23242;SDS011;11790;49.578;11.214;2022-09-16T20:23:35;11.57;;;6.30;;
23242;SDS011;11790;49.578;11.214;2022-09-16T20:28:37;8.35;;;5.40;;
23242;SDS011;11790;49.578;11.214;2022-09-16T20:33:40;10.88;;;5.93;;
23242;SDS011;11790;49.578;11.214;2022-09-16T20:38:41;9.00;;;4.70;;
23242;SDS011;11790;49.578;11.214;2022-09-16T20:43:42;7.22;;;4.20;;
23242;SDS011;11790;49.578;11.214;2022-09-16T20:48:42;9.13;;;3.67;;
23242;SDS011;11790;49.578;11.214;2022-09-16T20:53:43;7.57;;;3.85;;
23242;SDS011;11790;49.578;11.214;2022-09-16T20:58:49;4.47;;;3.45;;
23242;SDS011;11790;49.578;11.214;2022-09-16T21:03:50;7.25;;;3.00;;
23242;SDS011;11790;49.578;11.214;2022-09-16T21:08:55;6.60;;;2.78;;
23242;SDS011;11790;49.578;11.214;2022-09-16T21:13:57;3.40;;;2.60;;
23242;SDS011;11790;49.578;11.214;2022-09-16T21:18:58;3.78;;;2.65;;
23242;SDS011;11790;49.578;11.214;2022-09-16T21:23:59;4.28;;;2.40;;
23242;SDS011;11790;49.578;11.214;2022-09-16T21:29:02;2.90;;;2.10;;
23242;SDS011;11790;49.578;11.214;2022-09-16T21:34:04;5.70;;;1.95;;
23242;SDS011;11790;49.578;11.214;2022-09-16T21:39:06;4.53;;;1.98;;
23242;SDS011;11790;49.578;11.214;2022-09-16T21:44:06;4.38;;;2.03;;
23242;SDS011;11790;49.578;11.214;2022-09-16T21:49:11;4.72;;;2.35;;
23242;SDS011;11790;49.578;11.214;2022-09-16T21:54:24;3.45;;;1.80;;
23242;SDS011;11790;49.578;11.214;2022-09-16T21:59:25;1.98;;;1.67;;
23242;SDS011;11790;49.578;11.214;2022-09-16T22:04:26;3.20;;;1.75;;
23242;SDS011;11790;49.578;11.214;2022-09-16T22:09:26;5.57;;;1.80;;
23242;SDS011;11790;49.578;11.214;2022-09-16T22:14:26;4.17;;;1.60;;
23242;SDS011;11790;49.578;11.214;2022-09-16T22:19:27;3.85;;;2.10;;
23242;SDS011;11790;49.578;11.214;2022-09-16T22:24:27;1.70;;;1.60;;
23242;SDS011;11790;49.578;11.214;2022-09-16T22:29:28;3.97;;;1.75;;
23242;SDS011;11790;49.578;11.214;2022-09-16T22:34:28;7.03;;;2.07;;
23242;SDS011;11790;49.578;11.214;2022-09-16T22:39:28;3.00;;;1.80;;
23242;SDS011;11790;49.578;11.214;2022-09-16T22:44:29;3.93;;;1.73;;
23242;SDS011;11790;49.578;11.214;2022-09-16T22:49:29;4.00;;;1.80;;
23242;SDS011;11790;49.578;11.214;2022-09-16T22:54:29;3.47;;;1.80;;
23242;SDS011;11790;49.578;11.214;2022-09-16T22:59:30;3.35;;;1.90;;
23242;SDS011;11790;49.578;11.214;2022-09-16T23:04:31;5.00;;;2.03;;
23242;SDS011;11790;49.578;11.214;2022-09-16T23:09:32;3.35;;;1.90;;
23242;SDS011;11790;49.578;11.214;2022-09-16T23:14:32;2.17;;;1.95;;
23242;SDS011;11790;49.578;11.214;2022-09-16T23:19:32;5.45;;;2.83;;
23242;SDS011;11790;49.578;11.214;2022-09-16T23:24:33;4.80;;;2.75;;
23242;SDS011;11790;49.578;11.214;2022-09-16T23:29:33;5.38;;;2.30;;
23242;SDS011;11790;49.578;11.214;2022-09-16T23:34:33;4.07;;;2.53;;
23242;SDS011;11790;49.578;11.214;2022-09-16T23:39:33;6.87;;;2.57;;
23242;SDS011;11790;49.578;11.214;2022-09-16T23:44:34;3.45;;;2.88;;
23242;SDS011;11790;49.578;11.214;2022-09-16T23:49:34;3.45;;;2.70;;
23242;SDS011;11790;49.578;11.214;2022-09-16T23:54:34;4.07;;;3.00;;
23242;SDS011;11790;49.578;11.214;2022-09-16T23:59:35;2.83;;;2.40;;
